sensor_id;sensor_type;location;lat;lon;timestamp;P1;durP1;ratioP1;P2;durP2;ratioP2
30966;SDS011;17649;51.836;8.330;2022-09-09T00:04:43;4.53;;;1.80;;
30966;SDS011;17649;51.836;8.330;2022-09-09T00:08:12;2.22;;;1.45;;
30966;SDS011;17649;51.836;8.330;2022-09-09T00:11:24;2.78;;;1.70;;
30966;SDS011;17649;51.836;8.330;2022-09-09T00:14:35;6.78;;;1.85;;
30966;SDS011;17649;51.836;8.330;2022-09-09T00:17:48;2.85;;;1.85;;
30966;SDS011;17649;51.836;8.330;2022-09-09T00:24:11;2.75;;;1.55;;
30966;SDS011;17649;51.836;8.330;2022-09-09T00:27:37;6.20;;;1.90;;
30966;SDS011;17649;51.836;8.330;2022-09-09T00:30:50;4.80;;;2.05;;
30966;SDS011;17649;51.836;8.330;2022-09-09T00:33:52;8.35;;;2.33;;
30966;SDS011;17649;51.836;8.330;2022-09-09T00:36:59;7.97;;;1.75;;
30966;SDS011;17649;51.836;8.330;2022-09-09T00:43:21;4.70;;;2.28;;
30966;SDS011;17649;51.836;8.330;2022-09-09T00:56:37;3.67;;;2.10;;
30966;SDS011;17649;51.836;8.330;2022-09-09T01:06:38;4.07;;;2.03;;
30966;SDS011;17649;51.836;8.330;2022-09-09T01:12:42;3.47;;;1.92;;
30966;SDS011;17649;51.836;8.330;2022-09-09T01:15:47;11.07;;;2.67;;
30966;SDS011;17649;51.836;8.330;2022-09-09T01:18:53;4.15;;;1.80;;
30966;SDS011;17649;51.836;8.330;2022-09-09T01:22:19;4.38;;;1.95;;
30966;SDS011;17649;51.836;8.330;2022-09-09T01:28:41;5.07;;;1.95;;
30966;SDS011;17649;51.836;8.330;2022-09-09T01:35:03;3.10;;;1.92;;
30966;SDS011;17649;51.836;8.330;2022-09-09T01:38:09;4.72;;;2.15;;
30966;SDS011;17649;51.836;8.330;2022-09-09T01:41:10;3.55;;;2.10;;
30966;SDS011;17649;51.836;8.330;2022-09-09T01:44:13;5.00;;;2.55;;
30966;SDS011;17649;51.836;8.330;2022-09-09T01:47:15;4.97;;;1.87;;
30966;SDS011;17649;51.836;8.330;2022-09-09T01:50:18;8.40;;;2.33;;
30966;SDS011;17649;51.836;8.330;2022-09-09T01:53:21;3.60;;;2.00;;
30966;SDS011;17649;51.836;8.330;2022-09-09T02:06:32;6.53;;;2.00;;
30966;SDS011;17649;51.836;8.330;2022-09-09T02:09:38;4.60;;;2.35;;
30966;SDS011;17649;51.836;8.330;2022-09-09T02:12:47;3.22;;;1.98;;
30966;SDS011;17649;51.836;8.330;2022-09-09T02:16:00;5.95;;;2.28;;
30966;SDS011;17649;51.836;8.330;2022-09-09T02:19:06;3.10;;;1.95;;
30966;SDS011;17649;51.836;8.330;2022-09-09T02:22:15;4.85;;;2.10;;
30966;SDS011;17649;51.836;8.330;2022-09-09T02:25:21;6.22;;;2.30;;
30966;SDS011;17649;51.836;8.330;2022-09-09T02:28:28;8.18;;;2.22;;
30966;SDS011;17649;51.836;8.330;2022-09-09T02:31:33;4.35;;;2.05;;
30966;SDS011;17649;51.836;8.330;2022-09-09T02:34:36;6.15;;;2.67;;
30966;SDS011;17649;51.836;8.330;2022-09-09T02:37:45;4.68;;;2.20;;
30966;SDS011;17649;51.836;8.330;2022-09-09T02:43:50;4.35;;;2.28;;
30966;SDS011;17649;51.836;8.330;2022-09-09T02:50:38;2.95;;;2.10;;
30966;SDS011;17649;51.836;8.330;2022-09-09T02:54:09;8.57;;;3.30;;
30966;SDS011;17649;51.836;8.330;2022-09-09T02:57:23;6.30;;;2.55;;
30966;SDS011;17649;51.836;8.330;2022-09-09T03:00:33;4.63;;;2.70;;
30966;SDS011;17649;51.836;8.330;2022-09-09T03:03:39;5.63;;;2.72;;
30966;SDS011;17649;51.836;8.330;2022-09-09T03:06:42;5.78;;;2.92;;
30966;SDS011;17649;51.836;8.330;2022-09-09T03:09:47;4.90;;;2.75;;
30966;SDS011;17649;51.836;8.330;2022-09-09T03:12:50;4.80;;;2.65;;
30966;SDS011;17649;51.836;8.330;2022-09-09T03:15:53;3.67;;;2.65;;
30966;SDS011;17649;51.836;8.330;2022-09-09T03:18:54;5.57;;;2.67;;
30966;SDS011;17649;51.836;8.330;2022-09-09T03:21:59;7.47;;;2.50;;
30966;SDS011;17649;51.836;8.330;2022-09-09T03:25:01;8.45;;;2.90;;
30966;SDS011;17649;51.836;8.330;2022-09-09T03:28:04;4.25;;;2.38;;
30966;SDS011;17649;51.836;8.330;2022-09-09T03:34:11;10.07;;;2.80;;
30966;SDS011;17649;51.836;8.330;2022-09-09T03:37:13;4.32;;;2.25;;
30966;SDS011;17649;51.836;8.330;2022-09-09T03:40:15;6.80;;;2.33;;
30966;SDS011;17649;51.836;8.330;2022-09-09T03:43:24;7.90;;;2.20;;
30966;SDS011;17649;51.836;8.330;2022-09-09T03:46:35;4.68;;;2.30;;
30966;SDS011;17649;51.836;8.330;2022-09-09T03:49:38;3.90;;;2.20;;
30966;SDS011;17649;51.836;8.330;2022-09-09T03:52:41;5.93;;;2.17;;
30966;SDS011;17649;51.836;8.330;2022-09-09T03:55:45;13.98;;;2.90;;
30966;SDS011;17649;51.836;8.330;2022-09-09T03:58:47;9.73;;;3.10;;
30966;SDS011;17649;51.836;8.330;2022-09-09T04:01:47;4.85;;;2.83;;
30966;SDS011;17649;51.836;8.330;2022-09-09T04:04:51;12.50;;;2.97;;
30966;SDS011;17649;51.836;8.330;2022-09-09T04:07:52;5.65;;;2.55;;
30966;SDS011;17649;51.836;8.330;2022-09-09T04:10:54;8.80;;;2.70;;
30966;SDS011;17649;51.836;8.330;2022-09-09T04:13:58;4.57;;;2.72;;
30966;SDS011;17649;51.836;8.330;2022-09-09T04:17:00;4.35;;;2.40;;
30966;SDS011;17649;51.836;8.330;2022-09-09T04:20:04;5.28;;;2.53;;
30966;SDS011;17649;51.836;8.330;2022-09-09T04:23:07;8.25;;;2.90;;
30966;SDS011;17649;51.836;8.330;2022-09-09T04:26:10;4.15;;;2.55;;
30966;SDS011;17649;51.836;8.330;2022-09-09T04:29:20;4.28;;;2.65;;
30966;SDS011;17649;51.836;8.330;2022-09-09T04:32:22;7.32;;;2.28;;
30966;SDS011;17649;51.836;8.330;2022-09-09T04:35:26;5.28;;;2.80;;
30966;SDS011;17649;51.836;8.330;2022-09-09T04:38:28;3.70;;;2.22;;
30966;SDS011;17649;51.836;8.330;2022-09-09T04:41:30;4.73;;;2.30;;
30966;SDS011;17649;51.836;8.330;2022-09-09T04:44:32;8.45;;;3.30;;
30966;SDS011;17649;51.836;8.330;2022-09-09T04:47:34;7.00;;;2.97;;
30966;SDS011;17649;51.836;8.330;2022-09-09T04:50:36;5.47;;;3.17;;
30966;SDS011;17649;51.836;8.330;2022-09-09T04:53:39;7.35;;;2.63;;
30966;SDS011;17649;51.836;8.330;2022-09-09T04:56:40;9.07;;;2.90;;
30966;SDS011;17649;51.836;8.330;2022-09-09T04:59:43;5.30;;;2.47;;
30966;SDS011;17649;51.836;8.330;2022-09-09T05:02:46;6.25;;;2.50;;
30966;SDS011;17649;51.836;8.330;2022-09-09T05:05:48;6.28;;;2.78;;
30966;SDS011;17649;51.836;8.330;2022-09-09T05:08:50;5.50;;;2.75;;
30966;SDS011;17649;51.836;8.330;2022-09-09T05:11:52;2.92;;;2.00;;
30966;SDS011;17649;51.836;8.330;2022-09-09T05:14:53;4.83;;;2.37;;
30966;SDS011;17649;51.836;8.330;2022-09-09T05:18:00;7.80;;;3.22;;
30966;SDS011;17649;51.836;8.330;2022-09-09T05:21:02;5.90;;;2.40;;
30966;SDS011;17649;51.836;8.330;2022-09-09T05:24:04;5.60;;;2.67;;
30966;SDS011;17649;51.836;8.330;2022-09-09T05:27:10;5.93;;;2.50;;
30966;SDS011;17649;51.836;8.330;2022-09-09T05:30:12;7.72;;;2.67;;
30966;SDS011;17649;51.836;8.330;2022-09-09T05:33:13;7.88;;;2.80;;
30966;SDS011;17649;51.836;8.330;2022-09-09T05:36:18;9.40;;;2.58;;
30966;SDS011;17649;51.836;8.330;2022-09-09T05:39:22;6.72;;;2.78;;
30966;SDS011;17649;51.836;8.330;2022-09-09T05:42:33;7.30;;;2.45;;
30966;SDS011;17649;51.836;8.330;2022-09-09T05:45:35;8.00;;;2.63;;
30966;SDS011;17649;51.836;8.330;2022-09-09T05:48:40;7.80;;;2.88;;
30966;SDS011;17649;51.836;8.330;2022-09-09T05:51:44;7.85;;;3.00;;
30966;SDS011;17649;51.836;8.330;2022-09-09T05:54:56;10.15;;;3.47;;
30966;SDS011;17649;51.836;8.330;2022-09-09T05:58:00;6.15;;;2.83;;
30966;SDS011;17649;51.836;8.330;2022-09-09T06:04:08;7.28;;;2.40;;
30966;SDS011;17649;51.836;8.330;2022-09-09T06:07:11;5.10;;;2.25;;
30966;SDS011;17649;51.836;8.330;2022-09-09T06:10:14;7.88;;;2.30;;
30966;SDS011;17649;51.836;8.330;2022-09-09T06:13:16;4.60;;;2.00;;
30966;SDS011;17649;51.836;8.330;2022-09-09T06:16:19;8.52;;;2.33;;
30966;SDS011;17649;51.836;8.330;2022-09-09T06:19:25;5.60;;;2.33;;
30966;SDS011;17649;51.836;8.330;2022-09-09T06:22:27;5.60;;;2.20;;
30966;SDS011;17649;51.836;8.330;2022-09-09T06:25:29;8.02;;;3.08;;
30966;SDS011;17649;51.836;8.330;2022-09-09T06:28:34;8.10;;;2.42;;
30966;SDS011;17649;51.836;8.330;2022-09-09T06:31:36;8.07;;;2.67;;
30966;SDS011;17649;51.836;8.330;2022-09-09T06:34:39;7.72;;;2.05;;
30966;SDS011;17649;51.836;8.330;2022-09-09T06:37:44;9.15;;;2.08;;
30966;SDS011;17649;51.836;8.330;2022-09-09T06:40:55;4.88;;;2.42;;
30966;SDS011;17649;51.836;8.330;2022-09-09T06:44:02;5.50;;;2.22;;
30966;SDS011;17649;51.836;8.330;2022-09-09T06:47:04;5.30;;;3.00;;
30966;SDS011;17649;51.836;8.330;2022-09-09T06:50:08;5.20;;;2.60;;
30966;SDS011;17649;51.836;8.330;2022-09-09T06:53:11;6.03;;;2.30;;
30966;SDS011;17649;51.836;8.330;2022-09-09T06:56:32;5.10;;;2.28;;
30966;SDS011;17649;51.836;8.330;2022-09-09T06:59:35;6.60;;;2.53;;
30966;SDS011;17649;51.836;8.330;2022-09-09T07:02:36;7.35;;;2.10;;
30966;SDS011;17649;51.836;8.330;2022-09-09T07:05:39;6.15;;;2.20;;
30966;SDS011;17649;51.836;8.330;2022-09-09T07:08:41;10.25;;;2.33;;
30966;SDS011;17649;51.836;8.330;2022-09-09T07:11:46;6.03;;;2.25;;
30966;SDS011;17649;51.836;8.330;2022-09-09T07:14:48;8.43;;;2.08;;
30966;SDS011;17649;51.836;8.330;2022-09-09T07:17:50;6.30;;;2.22;;
30966;SDS011;17649;51.836;8.330;2022-09-09T07:20:54;10.20;;;2.05;;
30966;SDS011;17649;51.836;8.330;2022-09-09T07:23:57;5.70;;;2.40;;
30966;SDS011;17649;51.836;8.330;2022-09-09T07:26:59;5.15;;;2.00;;
30966;SDS011;17649;51.836;8.330;2022-09-09T07:30:00;8.70;;;2.20;;
30966;SDS011;17649;51.836;8.330;2022-09-09T07:33:02;4.40;;;2.10;;
30966;SDS011;17649;51.836;8.330;2022-09-09T07:36:23;3.30;;;2.05;;
30966;SDS011;17649;51.836;8.330;2022-09-09T07:39:25;6.82;;;1.98;;
30966;SDS011;17649;51.836;8.330;2022-09-09T07:42:28;5.18;;;2.15;;
30966;SDS011;17649;51.836;8.330;2022-09-09T07:45:30;8.05;;;1.98;;
30966;SDS011;17649;51.836;8.330;2022-09-09T07:48:34;6.85;;;1.85;;
30966;SDS011;17649;51.836;8.330;2022-09-09T07:51:36;9.95;;;1.70;;
30966;SDS011;17649;51.836;8.330;2022-09-09T07:54:39;5.80;;;1.85;;
30966;SDS011;17649;51.836;8.330;2022-09-09T07:57:40;4.43;;;1.77;;
30966;SDS011;17649;51.836;8.330;2022-09-09T08:00:45;6.93;;;1.98;;
30966;SDS011;17649;51.836;8.330;2022-09-09T08:03:52;5.43;;;1.60;;
30966;SDS011;17649;51.836;8.330;2022-09-09T08:06:58;3.33;;;1.80;;
30966;SDS011;17649;51.836;8.330;2022-09-09T08:10:03;7.85;;;1.50;;
30966;SDS011;17649;51.836;8.330;2022-09-09T08:13:06;5.90;;;1.70;;
30966;SDS011;17649;51.836;8.330;2022-09-09T08:16:14;3.78;;;1.38;;
30966;SDS011;17649;51.836;8.330;2022-09-09T08:19:33;3.20;;;1.50;;
30966;SDS011;17649;51.836;8.330;2022-09-09T08:22:36;10.55;;;1.70;;
30966;SDS011;17649;51.836;8.330;2022-09-09T08:25:39;12.23;;;1.70;;
30966;SDS011;17649;51.836;8.330;2022-09-09T08:28:42;6.32;;;1.48;;
30966;SDS011;17649;51.836;8.330;2022-09-09T08:31:45;3.28;;;1.38;;
30966;SDS011;17649;51.836;8.330;2022-09-09T08:34:47;5.03;;;2.45;;
30966;SDS011;17649;51.836;8.330;2022-09-09T08:37:52;5.10;;;1.55;;
30966;SDS011;17649;51.836;8.330;2022-09-09T08:40:57;4.65;;;1.20;;
30966;SDS011;17649;51.836;8.330;2022-09-09T08:50:47;3.85;;;1.38;;
30966;SDS011;17649;51.836;8.330;2022-09-09T08:53:51;3.83;;;1.70;;
30966;SDS011;17649;51.836;8.330;2022-09-09T08:59:54;7.22;;;2.22;;
30966;SDS011;17649;51.836;8.330;2022-09-09T09:06:26;6.18;;;1.52;;
30966;SDS011;17649;51.836;8.330;2022-09-09T09:13:02;5.43;;;1.50;;
30966;SDS011;17649;51.836;8.330;2022-09-09T09:16:11;3.77;;;1.40;;
30966;SDS011;17649;51.836;8.330;2022-09-09T09:19:33;6.78;;;1.45;;
30966;SDS011;17649;51.836;8.330;2022-09-09T09:22:39;5.00;;;1.38;;
30966;SDS011;17649;51.836;8.330;2022-09-09T09:25:52;5.85;;;1.30;;
30966;SDS011;17649;51.836;8.330;2022-09-09T09:29:03;7.15;;;2.25;;
30966;SDS011;17649;51.836;8.330;2022-09-09T09:32:14;2.72;;;1.55;;
30966;SDS011;17649;51.836;8.330;2022-09-09T09:35:19;6.85;;;1.70;;
30966;SDS011;17649;51.836;8.330;2022-09-09T09:38:23;8.98;;;2.85;;
30966;SDS011;17649;51.836;8.330;2022-09-09T09:44:34;3.58;;;1.40;;
30966;SDS011;17649;51.836;8.330;2022-09-09T09:47:37;6.13;;;1.42;;
30966;SDS011;17649;51.836;8.330;2022-09-09T09:50:48;10.13;;;2.45;;
30966;SDS011;17649;51.836;8.330;2022-09-09T09:57:34;10.20;;;2.25;;
30966;SDS011;17649;51.836;8.330;2022-09-09T10:00:37;5.75;;;1.30;;
30966;SDS011;17649;51.836;8.330;2022-09-09T10:03:53;8.25;;;1.63;;
30966;SDS011;17649;51.836;8.330;2022-09-09T10:06:59;11.15;;;1.88;;
30966;SDS011;17649;51.836;8.330;2022-09-09T10:10:23;4.60;;;1.50;;
30966;SDS011;17649;51.836;8.330;2022-09-09T10:13:46;7.25;;;1.80;;
30966;SDS011;17649;51.836;8.330;2022-09-09T10:17:20;3.55;;;1.33;;
30966;SDS011;17649;51.836;8.330;2022-09-09T10:20:36;5.20;;;1.70;;
30966;SDS011;17649;51.836;8.330;2022-09-09T10:33:44;11.93;;;2.08;;
30966;SDS011;17649;51.836;8.330;2022-09-09T10:39:53;8.98;;;1.73;;
30966;SDS011;17649;51.836;8.330;2022-09-09T10:46:50;11.10;;;1.80;;
30966;SDS011;17649;51.836;8.330;2022-09-09T10:53:39;9.00;;;2.47;;
30966;SDS011;17649;51.836;8.330;2022-09-09T10:56:43;4.93;;;1.50;;
30966;SDS011;17649;51.836;8.330;2022-09-09T10:59:50;4.55;;;1.30;;
30966;SDS011;17649;51.836;8.330;2022-09-09T11:02:58;6.18;;;1.50;;
30966;SDS011;17649;51.836;8.330;2022-09-09T11:06:14;6.82;;;1.35;;
30966;SDS011;17649;51.836;8.330;2022-09-09T11:15:25;4.47;;;1.20;;
30966;SDS011;17649;51.836;8.330;2022-09-09T11:18:31;5.32;;;1.20;;
30966;SDS011;17649;51.836;8.330;2022-09-09T11:21:45;12.05;;;1.90;;
30966;SDS011;17649;51.836;8.330;2022-09-09T11:24:51;3.65;;;1.20;;
30966;SDS011;17649;51.836;8.330;2022-09-09T11:28:34;8.27;;;1.90;;
30966;SDS011;17649;51.836;8.330;2022-09-09T11:32:00;6.88;;;1.30;;
30966;SDS011;17649;51.836;8.330;2022-09-09T11:35:23;3.55;;;1.15;;
30966;SDS011;17649;51.836;8.330;2022-09-09T11:38:27;2.97;;;1.17;;
30966;SDS011;17649;51.836;8.330;2022-09-09T11:41:35;5.00;;;1.13;;
30966;SDS011;17649;51.836;8.330;2022-09-09T11:44:37;2.80;;;1.25;;
30966;SDS011;17649;51.836;8.330;2022-09-09T11:47:38;2.60;;;0.90;;
30966;SDS011;17649;51.836;8.330;2022-09-09T11:50:38;5.78;;;1.13;;
30966;SDS011;17649;51.836;8.330;2022-09-09T11:53:50;2.38;;;0.90;;
30966;SDS011;17649;51.836;8.330;2022-09-09T11:56:55;2.83;;;1.23;;
30966;SDS011;17649;51.836;8.330;2022-09-09T11:59:56;4.18;;;1.08;;
30966;SDS011;17649;51.836;8.330;2022-09-09T12:02:57;3.30;;;1.08;;
30966;SDS011;17649;51.836;8.330;2022-09-09T12:05:58;3.58;;;1.48;;
30966;SDS011;17649;51.836;8.330;2022-09-09T12:15:28;4.15;;;1.55;;
30966;SDS011;17649;51.836;8.330;2022-09-09T12:21:42;5.07;;;1.27;;
30966;SDS011;17649;51.836;8.330;2022-09-09T12:32:13;4.43;;;1.40;;
30966;SDS011;17649;51.836;8.330;2022-09-09T12:35:13;4.65;;;1.30;;
30966;SDS011;17649;51.836;8.330;2022-09-09T12:38:25;3.15;;;1.00;;
30966;SDS011;17649;51.836;8.330;2022-09-09T12:41:33;4.50;;;1.23;;
30966;SDS011;17649;51.836;8.330;2022-09-09T12:44:35;5.60;;;1.55;;
30966;SDS011;17649;51.836;8.330;2022-09-09T12:47:43;5.72;;;1.05;;
30966;SDS011;17649;51.836;8.330;2022-09-09T12:50:50;4.97;;;1.33;;
30966;SDS011;17649;51.836;8.330;2022-09-09T12:53:57;4.40;;;1.33;;
30966;SDS011;17649;51.836;8.330;2022-09-09T12:57:00;8.52;;;1.52;;
30966;SDS011;17649;51.836;8.330;2022-09-09T13:00:11;7.82;;;1.50;;
30966;SDS011;17649;51.836;8.330;2022-09-09T13:12:31;4.07;;;1.13;;
30966;SDS011;17649;51.836;8.330;2022-09-09T13:15:33;8.50;;;1.20;;
30966;SDS011;17649;51.836;8.330;2022-09-09T13:18:36;1.63;;;0.85;;
30966;SDS011;17649;51.836;8.330;2022-09-09T13:21:42;1.75;;;0.70;;
30966;SDS011;17649;51.836;8.330;2022-09-09T13:24:58;4.47;;;0.95;;
30966;SDS011;17649;51.836;8.330;2022-09-09T13:28:04;4.00;;;1.00;;
30966;SDS011;17649;51.836;8.330;2022-09-09T13:31:23;3.20;;;0.90;;
30966;SDS011;17649;51.836;8.330;2022-09-09T13:34:49;0.93;;;0.50;;
30966;SDS011;17649;51.836;8.330;2022-09-09T13:37:58;3.15;;;0.65;;
30966;SDS011;17649;51.836;8.330;2022-09-09T13:41:08;7.68;;;1.02;;
30966;SDS011;17649;51.836;8.330;2022-09-09T13:44:37;1.83;;;0.80;;
30966;SDS011;17649;51.836;8.330;2022-09-09T13:47:44;4.22;;;1.20;;
30966;SDS011;17649;51.836;8.330;2022-09-09T13:51:02;8.07;;;1.23;;
30966;SDS011;17649;51.836;8.330;2022-09-09T13:54:37;1.90;;;0.75;;
30966;SDS011;17649;51.836;8.330;2022-09-09T13:57:38;7.43;;;1.55;;
30966;SDS011;17649;51.836;8.330;2022-09-09T14:00:52;4.07;;;1.20;;
30966;SDS011;17649;51.836;8.330;2022-09-09T14:03:57;4.57;;;0.90;;
30966;SDS011;17649;51.836;8.330;2022-09-09T14:07:02;4.63;;;1.30;;
30966;SDS011;17649;51.836;8.330;2022-09-09T14:10:05;4.63;;;1.45;;
30966;SDS011;17649;51.836;8.330;2022-09-09T14:13:07;5.72;;;1.20;;
30966;SDS011;17649;51.836;8.330;2022-09-09T14:19:14;2.65;;;1.33;;
30966;SDS011;17649;51.836;8.330;2022-09-09T14:22:18;2.60;;;1.10;;
30966;SDS011;17649;51.836;8.330;2022-09-09T14:25:20;3.90;;;1.63;;
30966;SDS011;17649;51.836;8.330;2022-09-09T14:28:22;5.95;;;1.67;;
30966;SDS011;17649;51.836;8.330;2022-09-09T14:31:24;1.75;;;0.95;;
30966;SDS011;17649;51.836;8.330;2022-09-09T14:34:29;5.18;;;1.17;;
30966;SDS011;17649;51.836;8.330;2022-09-09T14:37:57;4.88;;;1.20;;
30966;SDS011;17649;51.836;8.330;2022-09-09T14:41:01;2.28;;;1.00;;
30966;SDS011;17649;51.836;8.330;2022-09-09T14:44:05;2.75;;;1.17;;
30966;SDS011;17649;51.836;8.330;2022-09-09T14:47:12;6.25;;;1.10;;
30966;SDS011;17649;51.836;8.330;2022-09-09T14:53:21;4.90;;;1.23;;
30966;SDS011;17649;51.836;8.330;2022-09-09T14:56:29;2.72;;;1.00;;
30966;SDS011;17649;51.836;8.330;2022-09-09T14:59:32;2.83;;;1.20;;
30966;SDS011;17649;51.836;8.330;2022-09-09T15:05:35;6.90;;;2.40;;
30966;SDS011;17649;51.836;8.330;2022-09-09T15:08:37;3.97;;;1.17;;
30966;SDS011;17649;51.836;8.330;2022-09-09T15:11:39;5.65;;;1.50;;
30966;SDS011;17649;51.836;8.330;2022-09-09T15:14:39;2.45;;;1.27;;
30966;SDS011;17649;51.836;8.330;2022-09-09T15:17:40;1.63;;;1.00;;
30966;SDS011;17649;51.836;8.330;2022-09-09T15:20:44;10.93;;;1.35;;
30966;SDS011;17649;51.836;8.330;2022-09-09T15:23:46;2.63;;;1.15;;
30966;SDS011;17649;51.836;8.330;2022-09-09T15:26:51;3.90;;;1.30;;
30966;SDS011;17649;51.836;8.330;2022-09-09T15:29:51;2.97;;;0.95;;
30966;SDS011;17649;51.836;8.330;2022-09-09T15:32:52;2.25;;;1.10;;
30966;SDS011;17649;51.836;8.330;2022-09-09T15:35:52;5.45;;;1.10;;
30966;SDS011;17649;51.836;8.330;2022-09-09T15:38:57;3.90;;;1.35;;
30966;SDS011;17649;51.836;8.330;2022-09-09T15:41:59;7.07;;;1.40;;
30966;SDS011;17649;51.836;8.330;2022-09-09T15:45:00;2.22;;;0.85;;
30966;SDS011;17649;51.836;8.330;2022-09-09T15:48:03;2.33;;;0.80;;
30966;SDS011;17649;51.836;8.330;2022-09-09T15:51:08;4.60;;;1.10;;
30966;SDS011;17649;51.836;8.330;2022-09-09T15:54:15;4.00;;;1.20;;
30966;SDS011;17649;51.836;8.330;2022-09-09T15:57:18;3.60;;;1.38;;
30966;SDS011;17649;51.836;8.330;2022-09-09T16:00:20;5.22;;;1.60;;
30966;SDS011;17649;51.836;8.330;2022-09-09T16:03:23;3.55;;;1.10;;
30966;SDS011;17649;51.836;8.330;2022-09-09T16:06:26;4.18;;;1.23;;
30966;SDS011;17649;51.836;8.330;2022-09-09T16:09:29;4.70;;;1.42;;
30966;SDS011;17649;51.836;8.330;2022-09-09T16:12:31;2.63;;;1.00;;
30966;SDS011;17649;51.836;8.330;2022-09-09T16:15:33;2.95;;;1.58;;
30966;SDS011;17649;51.836;8.330;2022-09-09T16:18:41;1.53;;;0.77;;
30966;SDS011;17649;51.836;8.330;2022-09-09T16:21:50;1.65;;;1.08;;
30966;SDS011;17649;51.836;8.330;2022-09-09T16:24:53;6.35;;;1.55;;
30966;SDS011;17649;51.836;8.330;2022-09-09T16:27:55;2.35;;;1.45;;
30966;SDS011;17649;51.836;8.330;2022-09-09T16:31:03;2.83;;;1.13;;
30966;SDS011;17649;51.836;8.330;2022-09-09T16:34:08;3.13;;;1.42;;
30966;SDS011;17649;51.836;8.330;2022-09-09T16:37:11;6.90;;;1.50;;
30966;SDS011;17649;51.836;8.330;2022-09-09T16:40:15;1.65;;;0.90;;
30966;SDS011;17649;51.836;8.330;2022-09-09T16:43:17;2.55;;;1.20;;
30966;SDS011;17649;51.836;8.330;2022-09-09T16:46:19;2.80;;;1.40;;
30966;SDS011;17649;51.836;8.330;2022-09-09T16:49:24;4.43;;;1.20;;
30966;SDS011;17649;51.836;8.330;2022-09-09T16:52:28;4.85;;;1.23;;
30966;SDS011;17649;51.836;8.330;2022-09-09T16:55:29;1.17;;;1.00;;
30966;SDS011;17649;51.836;8.330;2022-09-09T16:58:34;4.82;;;1.13;;
30966;SDS011;17649;51.836;8.330;2022-09-09T17:04:41;4.82;;;1.30;;
30966;SDS011;17649;51.836;8.330;2022-09-09T17:07:48;5.47;;;2.00;;
30966;SDS011;17649;51.836;8.330;2022-09-09T17:15:28;4.95;;;1.35;;
30966;SDS011;17649;51.836;8.330;2022-09-09T17:18:31;4.13;;;1.88;;
30966;SDS011;17649;51.836;8.330;2022-09-09T17:21:33;7.45;;;1.50;;
30966;SDS011;17649;51.836;8.330;2022-09-09T17:24:55;4.47;;;1.30;;
30966;SDS011;17649;51.836;8.330;2022-09-09T17:27:56;3.80;;;1.73;;
30966;SDS011;17649;51.836;8.330;2022-09-09T17:31:00;2.58;;;1.35;;
30966;SDS011;17649;51.836;8.330;2022-09-09T17:34:04;6.18;;;1.85;;
30966;SDS011;17649;51.836;8.330;2022-09-09T17:37:08;5.00;;;2.05;;
30966;SDS011;17649;51.836;8.330;2022-09-09T17:40:11;9.20;;;3.88;;
30966;SDS011;17649;51.836;8.330;2022-09-09T17:43:16;4.13;;;1.80;;
30966;SDS011;17649;51.836;8.330;2022-09-09T17:46:21;4.60;;;1.83;;
30966;SDS011;17649;51.836;8.330;2022-09-09T17:49:35;4.70;;;1.70;;
30966;SDS011;17649;51.836;8.330;2022-09-09T17:52:39;4.70;;;1.92;;
30966;SDS011;17649;51.836;8.330;2022-09-09T17:55:41;2.55;;;1.15;;
30966;SDS011;17649;51.836;8.330;2022-09-09T17:58:44;2.05;;;1.10;;
30966;SDS011;17649;51.836;8.330;2022-09-09T18:01:47;1.75;;;1.20;;
30966;SDS011;17649;51.836;8.330;2022-09-09T18:04:52;4.32;;;1.42;;
30966;SDS011;17649;51.836;8.330;2022-09-09T18:07:54;2.88;;;1.10;;
30966;SDS011;17649;51.836;8.330;2022-09-09T18:10:55;3.97;;;1.10;;
30966;SDS011;17649;51.836;8.330;2022-09-09T18:14:01;2.40;;;1.17;;
30966;SDS011;17649;51.836;8.330;2022-09-09T18:17:05;7.80;;;1.70;;
30966;SDS011;17649;51.836;8.330;2022-09-09T18:20:08;2.83;;;1.30;;
30966;SDS011;17649;51.836;8.330;2022-09-09T18:23:11;2.72;;;1.25;;
30966;SDS011;17649;51.836;8.330;2022-09-09T18:26:18;7.13;;;1.75;;
30966;SDS011;17649;51.836;8.330;2022-09-09T18:29:24;3.20;;;1.50;;
30966;SDS011;17649;51.836;8.330;2022-09-09T18:32:27;2.75;;;1.92;;
30966;SDS011;17649;51.836;8.330;2022-09-09T18:35:47;4.55;;;1.60;;
30966;SDS011;17649;51.836;8.330;2022-09-09T18:38:50;3.47;;;1.77;;
30966;SDS011;17649;51.836;8.330;2022-09-09T18:41:53;4.57;;;1.60;;
30966;SDS011;17649;51.836;8.330;2022-09-09T18:44:56;8.60;;;1.77;;
30966;SDS011;17649;51.836;8.330;2022-09-09T18:47:58;3.03;;;1.45;;
30966;SDS011;17649;51.836;8.330;2022-09-09T18:51:06;8.48;;;2.08;;
30966;SDS011;17649;51.836;8.330;2022-09-09T18:54:13;2.22;;;1.60;;
30966;SDS011;17649;51.836;8.330;2022-09-09T18:57:41;5.20;;;1.70;;
30966;SDS011;17649;51.836;8.330;2022-09-09T19:00:45;5.45;;;1.40;;
30966;SDS011;17649;51.836;8.330;2022-09-09T19:03:47;4.65;;;2.42;;
30966;SDS011;17649;51.836;8.330;2022-09-09T19:06:49;3.60;;;1.70;;
30966;SDS011;17649;51.836;8.330;2022-09-09T19:09:56;4.18;;;1.92;;
30966;SDS011;17649;51.836;8.330;2022-09-09T19:13:01;4.18;;;1.63;;
30966;SDS011;17649;51.836;8.330;2022-09-09T19:16:04;8.23;;;1.70;;
30966;SDS011;17649;51.836;8.330;2022-09-09T19:19:08;10.10;;;1.83;;
30966;SDS011;17649;51.836;8.330;2022-09-09T19:22:12;7.30;;;1.90;;
30966;SDS011;17649;51.836;8.330;2022-09-09T19:25:14;9.50;;;2.17;;
30966;SDS011;17649;51.836;8.330;2022-09-09T19:28:16;8.30;;;1.60;;
30966;SDS011;17649;51.836;8.330;2022-09-09T19:31:19;2.90;;;1.38;;
30966;SDS011;17649;51.836;8.330;2022-09-09T19:34:24;8.00;;;1.92;;
30966;SDS011;17649;51.836;8.330;2022-09-09T19:37:29;5.18;;;1.50;;
30966;SDS011;17649;51.836;8.330;2022-09-09T19:40:34;4.43;;;1.70;;
30966;SDS011;17649;51.836;8.330;2022-09-09T19:43:39;3.47;;;1.70;;
30966;SDS011;17649;51.836;8.330;2022-09-09T19:46:42;4.00;;;1.20;;
30966;SDS011;17649;51.836;8.330;2022-09-09T19:49:47;4.85;;;1.80;;
30966;SDS011;17649;51.836;8.330;2022-09-09T19:52:49;4.32;;;1.70;;
30966;SDS011;17649;51.836;8.330;2022-09-09T19:55:51;3.47;;;1.80;;
30966;SDS011;17649;51.836;8.330;2022-09-09T19:58:57;5.55;;;1.58;;
30966;SDS011;17649;51.836;8.330;2022-09-09T20:01:59;3.53;;;2.00;;
30966;SDS011;17649;51.836;8.330;2022-09-09T20:05:00;6.07;;;2.33;;
30966;SDS011;17649;51.836;8.330;2022-09-09T20:08:02;4.55;;;2.20;;
30966;SDS011;17649;51.836;8.330;2022-09-09T20:11:04;4.00;;;2.00;;
30966;SDS011;17649;51.836;8.330;2022-09-09T20:14:06;2.97;;;2.60;;
30966;SDS011;17649;51.836;8.330;2022-09-09T20:17:09;5.25;;;2.13;;
30966;SDS011;17649;51.836;8.330;2022-09-09T20:20:12;5.97;;;1.98;;
30966;SDS011;17649;51.836;8.330;2022-09-09T20:23:14;5.40;;;1.98;;
30966;SDS011;17649;51.836;8.330;2022-09-09T20:26:16;3.72;;;2.05;;
30966;SDS011;17649;51.836;8.330;2022-09-09T20:29:21;4.03;;;1.90;;
30966;SDS011;17649;51.836;8.330;2022-09-09T20:32:22;2.93;;;1.80;;
30966;SDS011;17649;51.836;8.330;2022-09-09T20:35:24;2.83;;;2.53;;
30966;SDS011;17649;51.836;8.330;2022-09-09T20:38:27;7.72;;;2.33;;
30966;SDS011;17649;51.836;8.330;2022-09-09T20:41:30;2.63;;;1.77;;
30966;SDS011;17649;51.836;8.330;2022-09-09T20:44:32;1.80;;;1.48;;
30966;SDS011;17649;51.836;8.330;2022-09-09T20:47:34;3.57;;;1.60;;
30966;SDS011;17649;51.836;8.330;2022-09-09T20:50:36;2.90;;;2.13;;
30966;SDS011;17649;51.836;8.330;2022-09-09T20:53:39;2.95;;;1.70;;
30966;SDS011;17649;51.836;8.330;2022-09-09T20:56:41;3.22;;;1.90;;
30966;SDS011;17649;51.836;8.330;2022-09-09T20:59:44;6.65;;;2.13;;
30966;SDS011;17649;51.836;8.330;2022-09-09T21:02:53;2.55;;;1.45;;
30966;SDS011;17649;51.836;8.330;2022-09-09T21:05:54;3.10;;;1.77;;
30966;SDS011;17649;51.836;8.330;2022-09-09T21:08:57;4.25;;;1.70;;
30966;SDS011;17649;51.836;8.330;2022-09-09T21:12:08;4.95;;;2.25;;